Time;durP1;ratioP1;P1;durP2;ratioP2;P2;SDS_P1;SDS_P2;PMS_P1;PMS_P2;Temp;Humidity;BMP_temperature;BMP_pressure;BME280_temperature;BME280_humidity;BME280_pressure;Samples;Min_cycle;Max_cycle;Signal;HPM_P1;HPM_P2
2022/06/22 00:02:12;;;;;;;8.25;7.53;;;;;;;22.72;nan;98836.69;4907250;29;20913;-77
2022/06/22 00:04:42;;;;;;;13.00;8.13;;;;;;;22.72;nan;98841.22;4923478;29;20226;-80
2022/06/22 00:07:13;;;;;;;7.83;7.13;;;;;;;22.70;nan;98836.03;4913627;29;20466;-78
2022/06/22 00:09:40;;;;;;;8.07;7.33;;;;;;;22.69;nan;98837.09;4910379;29;20805;-77
2022/06/22 00:12:17;;;;;;;8.60;7.63;;;;;;;22.72;nan;98852.75;4912776;29;20994;-81
2022/06/22 00:14:46;;;;;;;7.67;6.97;;;;;;;22.77;nan;98852.19;4918155;29;20554;-76
2022/06/22 00:17:30;;;;;;;9.97;8.97;;;;;;;22.81;nan;98852.59;4907347;29;20470;-78
2022/06/22 00:20:04;;;;;;;10.20;8.20;;;;;;;22.82;nan;98852.44;4918610;29;20959;-76
2022/06/22 00:22:29;;;;;;;8.33;7.50;;;;;;;22.78;nan;98839.63;4919562;29;20484;-81
2022/06/22 00:25:22;;;;;;;8.67;7.70;;;;;;;22.77;nan;98833.44;4911693;29;20502;-80
2022/06/22 00:27:48;;;;;;;8.13;7.43;;;;;;;22.77;nan;98830.75;4903579;29;20222;-76
2022/06/22 00:30:30;;;;;;;9.33;8.20;;;;;;;22.76;nan;98842.47;4891993;29;20587;-81
2022/06/22 00:33:19;;;;;;;10.00;8.90;;;;;;;22.78;nan;98844.97;4910860;29;20485;-78
2022/06/22 00:36:12;;;;;;;8.20;7.60;;;;;;;22.75;nan;98851.53;4921016;29;20288;-77
2022/06/22 00:38:38;;;;;;;8.27;7.47;;;;;;;22.68;nan;98830.09;4919203;29;20805;-76
2022/06/22 00:41:16;;;;;;;9.20;8.20;;;;;;;22.60;nan;98835.59;4921552;29;20969;-78
2022/06/22 00:43:41;;;;;;;8.53;7.83;;;;;;;22.44;nan;98842.03;4921601;29;20491;-81
2022/06/22 00:46:16;;;;;;;10.20;8.40;;;;;;;22.33;nan;98852.41;4916497;29;20480;-78
2022/06/22 00:48:42;;;;;;;8.47;7.57;;;;;;;22.28;nan;98851.16;4914115;29;20207;-76
2022/06/22 00:51:14;;;;;;;9.67;8.80;;;;;;;22.27;nan;98854.00;4907915;29;20527;-80
2022/06/22 00:53:45;;;;;;;9.73;8.30;;;;;;;22.31;nan;98861.47;4911829;29;20493;-76
2022/06/22 00:56:22;;;;;;;11.97;8.77;;;;;;;22.34;nan;98860.25;4905934;29;20862;-78
2022/06/22 00:59:00;;;;;;;9.27;8.07;;;;;;;22.34;nan;98843.38;4917235;29;20481;-78
2022/06/22 01:01:44;;;;;;;11.60;8.67;;;;;;;22.30;nan;98843.78;4910340;29;20499;-81
2022/06/22 01:04:20;;;;;;;11.13;9.87;;;;;;;22.30;nan;98845.59;4919931;29;20724;-78
2022/06/22 01:06:55;;;;;;;8.37;7.70;;;;;;;22.27;nan;98848.66;4905815;29;20474;-81
2022/06/22 01:09:38;;;;;;;9.90;9.10;;;;;;;22.26;nan;98853.19;4920643;29;20871;-76
2022/06/22 01:12:31;;;;;;;9.37;8.53;;;;;;;22.27;nan;98846.81;4909726;29;20907;-78
2022/06/22 01:15:12;;;;;;;8.70;8.00;;;;;;;22.30;nan;98838.41;4908067;29;20519;-79
2022/06/22 01:17:48;;;;;;;9.00;8.20;;;;;;;22.34;nan;98838.84;4916225;29;20470;-77
2022/06/22 01:20:57;;;;;;;8.40;7.70;;;;;;;22.38;nan;98847.31;4912544;29;20252;-78
2022/06/22 01:23:47;;;;;;;8.97;7.20;;;;;;;22.42;nan;98840.56;4835768;29;20488;-76
2022/06/22 01:26:42;;;;;;;8.90;8.10;;;;;;;22.44;nan;98843.84;4841171;29;20484;-80
2022/06/22 01:29:27;;;;;;;10.10;9.13;;;;;;;22.38;nan;98850.81;4904471;29;20562;-81
2022/06/22 01:32:12;;;;;;;10.85;9.85;;;;;;;22.35;nan;98861.09;4917198;29;20935;-77
2022/06/22 01:34:42;;;;;;;8.63;7.87;;;;;;;22.34;nan;98854.91;4910151;29;20588;-77
2022/06/22 01:37:15;;;;;;;9.13;8.33;;;;;;;22.34;nan;98856.75;4917197;29;20450;-78
2022/06/22 01:39:41;;;;;;;10.23;7.63;;;;;;;22.30;nan;98846.44;4916047;29;20470;-76
2022/06/22 01:42:27;;;;;;;8.60;7.90;;;;;;;22.28;nan;98834.28;4918132;29;20499;-82
2022/06/22 01:44:56;;;;;;;8.63;7.50;;;;;;;22.28;nan;98836.97;4906127;29;20481;-78
2022/06/22 01:47:47;;;;;;;8.80;8.00;;;;;;;22.26;nan;98834.47;4903653;29;20471;-80
2022/06/22 01:50:27;;;;;;;10.93;7.73;;;;;;;22.19;nan;98835.41;4909668;29;20476;-81
2022/06/22 01:53:01;;;;;;;9.40;8.23;;;;;;;22.11;nan;98836.31;4936748;23;20650;-68
2022/06/22 01:55:39;;;;;;;15.20;9.47;;;;;;;22.00;nan;98836.84;4917782;29;20971;-69
2022/06/22 01:58:29;;;;;;;10.70;9.70;;;;;;;21.85;nan;98837.72;4930885;29;20558;-68
2022/06/22 02:01:06;;;;;;;9.53;8.27;;;;;;;21.78;nan;98844.81;4922432;29;20546;-69
2022/06/22 02:03:45;;;;;;;8.60;7.90;;;;;;;21.79;nan;98851.00;4911235;29;21028;-70
2022/06/22 02:09:13;;;;;;;9.97;8.97;;;;;;;21.75;nan;98849.72;4935004;29;20470;-70
2022/06/22 02:11:46;;;;;;;8.83;7.67;;;;;;;21.79;nan;98851.00;4939788;29;20986;-69
2022/06/22 02:14:21;;;;;;;9.30;8.40;;;;;;;21.83;nan;98857.63;4933943;29;20952;-70
2022/06/22 02:16:58;;;;;;;9.93;8.67;;;;;;;21.82;nan;98850.66;4932477;29;20472;-69
2022/06/22 02:19:28;;;;;;;10.47;9.50;;;;;;;21.81;nan;98863.16;4936718;28;20948;-69
2022/06/22 02:22:01;;;;;;;10.27;9.10;;;;;;;21.78;nan;98868.06;4938894;29;20492;-70
2022/06/22 02:24:39;;;;;;;13.27;8.63;;;;;;;21.74;nan;98870.28;4937240;29;20752;-70
2022/06/22 02:27:23;;;;;;;9.97;9.07;;;;;;;21.75;nan;98871.13;4937329;29;20855;-70
2022/06/22 02:30:07;;;;;;;8.30;7.60;;;;;;;21.75;nan;98866.59;4934647;29;20477;-70
2022/06/22 02:32:39;;;;;;;9.87;8.87;;;;;;;21.72;nan;98869.66;4936417;29;20797;-69
2022/06/22 02:35:07;;;;;;;10.10;8.40;;;;;;;21.72;nan;98868.81;4935015;29;21091;-70
2022/06/22 02:37:39;;;;;;;10.50;9.50;;;;;;;21.71;nan;98865.31;4938995;29;20567;-70
2022/06/22 02:40:08;;;;;;;9.80;8.83;;;;;;;21.71;nan;98861.81;4939010;28;20457;-70
2022/06/22 02:45:19;;;;;;;12.33;10.37;;;;;;;21.67;nan;98858.69;4935112;29;20812;-70
2022/06/22 02:47:58;;;;;;;10.50;9.50;;;;;;;21.64;nan;98870.56;4920077;29;20478;-69
2022/06/22 02:50:38;;;;;;;10.43;9.53;;;;;;;21.57;nan;98866.16;4934774;29;22164;-68
2022/06/22 02:53:28;;;;;;;10.13;9.10;;;;;;;21.47;nan;98865.63;4938417;29;20484;-69
2022/06/22 02:55:54;;;;;;;10.13;9.23;;;;;;;21.42;nan;98860.84;4936200;29;20450;-70
2022/06/22 02:58:30;;;;;;;10.53;9.53;;;;;;;21.39;nan;98864.72;4935574;29;20477;-70
2022/06/22 03:01:04;;;;;;;10.40;9.50;;;;;;;21.37;nan;98864.06;4937112;29;20542;-69
2022/06/22 03:03:30;;;;;;;13.85;11.80;;;;;;;21.37;nan;98866.75;4933066;29;20546;-70
2022/06/22 03:05:57;;;;;;;10.33;9.33;;;;;;;21.33;nan;98868.09;4940797;29;20684;-70
2022/06/22 03:08:24;;;;;;;11.03;9.80;;;;;;;21.31;nan;98858.63;4934540;29;20857;-69
2022/06/22 03:10:54;;;;;;;12.17;10.97;;;;;;;21.31;nan;98872.78;4934328;29;20548;-70
2022/06/22 03:13:25;;;;;;;12.10;10.87;;;;;;;21.32;nan;98876.28;4939669;29;20984;-70
2022/06/22 03:15:51;;;;;;;11.10;10.00;;;;;;;21.32;nan;98879.78;4940191;29;20472;-69
2022/06/22 03:18:24;;;;;;;11.80;10.73;;;;;;;21.34;nan;98890.31;4935302;29;20462;-69
2022/06/22 03:21:06;;;;;;;13.43;10.63;;;;;;;21.36;nan;98901.59;4937649;29;20493;-69
2022/06/22 03:23:48;;;;;;;12.90;11.00;;;;;;;21.38;nan;98897.78;4938446;29;20494;-69
2022/06/22 03:26:31;;;;;;;11.87;10.53;;;;;;;21.42;nan;98904.41;4937741;29;20881;-69
2022/06/22 03:29:12;;;;;;;16.13;13.60;;;;;;;21.49;nan;98935.72;4925906;29;21077;-71
2022/06/22 03:31:48;;;;;;;14.47;12.77;;;;;;;21.52;nan;98972.78;4935952;29;20603;-70
2022/06/22 03:34:22;;;;;;;15.53;14.07;;;;;;;21.55;nan;98991.09;4935607;29;20457;-69
2022/06/22 03:36:53;;;;;;;16.20;14.07;;;;;;;21.57;nan;98984.56;4940745;29;20470;-70
2022/06/22 03:39:21;;;;;;;16.77;12.67;;;;;;;21.55;nan;98994.63;4937798;29;20978;-69
2022/06/22 03:41:56;;;;;;;16.40;14.37;;;;;;;21.53;nan;98987.81;4939300;29;20477;-69
2022/06/22 03:44:28;;;;;;;15.60;13.60;;;;;;;21.52;nan;98978.97;4933092;29;20850;-69
2022/06/22 03:46:59;;;;;;;15.63;12.27;;;;;;;21.53;nan;98987.81;4938748;29;20971;-70
2022/06/22 03:49:32;;;;;;;16.30;13.40;;;;;;;21.51;nan;98987.16;4934838;28;20556;-69
2022/06/22 03:52:16;;;;;;;22.93;15.13;;;;;;;21.47;nan;98999.22;4935750;29;20490;-69
2022/06/22 03:55:06;;;;;;;14.30;12.80;;;;;;;21.41;nan;98987.41;4936593;29;20497;-69
2022/06/22 03:57:36;;;;;;;18.43;13.23;;;;;;;21.41;nan;98993.59;4929925;29;20462;-69
2022/06/22 04:00:05;;;;;;;16.80;13.10;;;;;;;21.38;nan;98983.25;4935569;29;20481;-69
2022/06/22 04:02:32;;;;;;;16.23;13.00;;;;;;;21.32;nan;98981.28;4933138;29;20471;-68
2022/06/22 04:04:59;;;;;;;14.53;11.43;;;;;;;21.27;nan;98978.34;4937138;29;20904;-69
2022/06/22 04:07:31;;;;;;;15.97;11.10;;;;;;;21.24;nan;98975.22;4942411;29;20469;-70
2022/06/22 04:09:57;;;;;;;13.63;10.30;;;;;;;21.17;nan;98962.59;4931353;29;20748;-69
2022/06/22 04:12:31;;;;;;;14.40;10.90;;;;;;;21.12;nan;98959.63;4938820;29;20478;-68
2022/06/22 04:15:10;;;;;;;15.40;8.50;;;;;;;21.01;nan;98960.06;4936057;28;20835;-69
2022/06/22 04:17:47;;;;;;;10.80;9.13;;;;;;;20.87;nan;98958.16;4941113;29;20531;-70
2022/06/22 04:20:24;;;;;;;14.37;8.70;;;;;;;20.76;nan;98952.25;4936544;29;20961;-69
2022/06/22 04:22:53;;;;;;;10.83;7.53;;;;;;;20.71;nan;98951.13;4930096;29;20627;-70
2022/06/22 04:25:40;;;;;;;13.30;8.23;;;;;;;20.68;nan;98962.97;4938808;29;20545;-70
2022/06/22 04:28:12;;;;;;;21.13;9.53;;;;;;;20.64;nan;98960.88;4932926;29;20825;-69
2022/06/22 04:30:47;;;;;;;11.80;9.00;;;;;;;20.61;nan;98969.22;4933064;29;20462;-70
2022/06/22 04:33:20;;;;;;;11.10;9.17;;;;;;;20.58;nan;98964.22;4921620;29;20815;-70
2022/06/22 04:35:54;;;;;;;11.70;9.70;;;;;;;20.51;nan;98959.56;4927861;29;20482;-70
2022/06/22 04:38:38;;;;;;;12.17;10.30;;;;;;;20.45;nan;98967.47;4935859;29;20472;-70
2022/06/22 04:41:32;;;;;;;11.43;9.10;;;;;;;20.42;nan;98957.16;4936736;29;20481;-70
2022/06/22 04:44:20;;;;;;;17.03;9.80;;;;;;;20.42;nan;98962.50;4936289;28;20494;-69
2022/06/22 04:46:51;;;;;;;15.20;10.40;;;;;;;20.41;nan;98955.47;4939314;29;20465;-69
2022/06/22 04:49:27;;;;;;;14.03;9.37;;;;;;;20.38;nan;98958.50;4940899;29;20554;-70
2022/06/22 04:52:12;;;;;;;17.60;11.07;;;;;;;20.33;nan;98957.22;4938920;29;20507;-70
2022/06/22 04:54:40;;;;;;;13.87;11.03;;;;;;;20.32;nan;98958.19;4937042;29;20422;-70
2022/06/22 04:57:21;;;;;;;13.80;10.90;;;;;;;20.32;nan;98955.53;4938505;28;20467;-70
2022/06/22 04:59:48;;;;;;;12.73;11.07;;;;;;;20.34;nan;98936.69;4939097;29;20505;-70
2022/06/22 05:02:18;;;;;;;11.90;10.33;;;;;;;20.32;nan;98933.38;4941309;29;20467;-69
2022/06/22 05:04:52;;;;;;;11.67;10.23;;;;;;;20.32;nan;98928.84;4940742;29;20700;-70
2022/06/22 05:07:28;;;;;;;16.40;12.10;;;;;;;20.33;nan;98929.69;4931860;29;20527;-69
2022/06/22 05:10:23;;;;;;;11.57;10.47;;;;;;;20.37;nan;98920.34;4936554;29;20488;-70
2022/06/22 05:13:01;;;;;;;15.00;11.93;;;;;;;20.44;nan;98923.09;4938729;29;20491;-70
2022/06/22 05:15:30;;;;;;;13.23;11.90;;;;;;;20.48;nan;98911.09;4942794;29;20464;-70
2022/06/22 05:17:58;;;;;;;17.07;11.93;;;;;;;20.52;nan;98913.22;4939419;28;20704;-71
2022/06/22 05:20:31;;;;;;;14.30;11.27;;;;;;;20.53;nan;98912.25;4937654;29;20935;-70
2022/06/22 05:23:01;;;;;;;15.70;10.90;;;;;;;20.57;nan;98920.72;4941152;29;20569;-70
2022/06/22 05:25:28;;;;;;;12.53;11.30;;;;;;;20.63;nan;98920.03;4932809;29;20742;-70
2022/06/22 05:27:58;;;;;;;12.10;10.90;;;;;;;20.66;nan;98911.66;4936121;29;20441;-71
2022/06/22 05:30:24;;;;;;;12.90;11.60;;;;;;;20.70;nan;98909.44;4939635;29;20553;-70
2022/06/22 05:32:54;;;;;;;13.80;11.90;;;;;;;20.75;nan;98918.56;4947106;29;20984;-71
2022/06/22 05:35:28;;;;;;;14.37;11.63;;;;;;;20.81;nan;98910.84;4950792;29;20213;-70
2022/06/22 05:37:55;;;;;;;13.93;12.10;;;;;;;20.85;nan;98910.31;4946581;29;20471;-70
2022/06/22 05:40:25;;;;;;;12.37;11.17;;;;;;;20.86;nan;98898.63;4918509;29;20463;-70
2022/06/22 05:42:51;;;;;;;15.30;11.27;;;;;;;20.88;nan;98893.13;4929176;29;20481;-70
2022/06/22 05:45:21;;;;;;;14.87;10.70;;;;;;;20.93;nan;98890.72;4936603;29;20841;-70
2022/06/22 05:47:47;;;;;;;15.70;13.30;;;;;;;21.01;nan;98890.66;4936715;29;20505;-70
2022/06/22 05:50:41;;;;;;;12.50;10.63;;;;;;;21.08;nan;98893.41;4939001;29;20948;-70
2022/06/22 05:53:16;;;;;;;14.97;11.73;;;;;;;21.13;nan;98888.34;4935751;29;20250;-71
2022/06/22 05:56:02;;;;;;;11.73;10.57;;;;;;;21.14;nan;98896.19;4936279;28;20802;-71
2022/06/22 05:58:44;;;;;;;14.77;12.13;;;;;;;21.15;nan;98908.53;4925035;29;20972;-71
2022/06/22 06:01:33;;;;;;;14.70;13.30;;;;;;;21.16;nan;98912.00;4916540;29;20463;-70
2022/06/22 06:04:10;;;;;;;13.50;12.10;;;;;;;21.14;nan;98922.03;4921126;29;20466;-71
2022/06/22 06:06:40;;;;;;;12.53;11.23;;;;;;;21.12;nan;98916.06;4921786;29;20981;-70
2022/06/22 06:09:11;;;;;;;16.97;12.37;;;;;;;21.10;nan;98926.94;4919654;29;20812;-70
2022/06/22 06:11:43;;;;;;;13.23;11.90;;;;;;;21.10;nan;98937.63;4905514;29;20518;-72
2022/06/22 06:14:16;;;;;;;14.50;12.10;;;;;;;21.09;nan;98940.44;4919915;29;20494;-70
2022/06/22 06:16:46;;;;;;;16.90;13.37;;;;;;;21.12;nan;98934.78;4920139;29;20437;-69
2022/06/22 06:19:15;;;;;;;16.63;12.70;;;;;;;21.10;nan;98937.63;4923321;29;20466;-69
2022/06/22 06:21:41;;;;;;;11.17;10.17;;;;;;;21.12;nan;98937.44;4920218;29;20502;-70
2022/06/22 06:24:15;;;;;;;13.97;12.57;;;;;;;21.12;nan;98940.13;4917105;29;20473;-69
2022/06/22 06:29:51;;;;;;;13.73;12.40;;;;;;;21.12;nan;98940.94;4918531;29;20423;-70
2022/06/22 06:32:26;;;;;;;15.70;13.07;;;;;;;21.15;nan;98945.91;4918520;29;20937;-69
2022/06/22 06:34:59;;;;;;;15.73;12.57;;;;;;;21.24;nan;98957.34;4917301;29;20350;-70
2022/06/22 06:37:32;;;;;;;13.83;12.43;;;;;;;21.36;nan;98969.25;4914779;29;20944;-70
2022/06/22 06:39:58;;;;;;;15.07;12.97;;;;;;;21.48;nan;98966.97;4922309;29;20461;-69
2022/06/22 06:43:02;;;;;;;13.27;11.27;;;;;;;21.61;nan;98966.34;4921032;29;20552;-70
2022/06/22 06:45:28;;;;;;;13.60;12.20;;;;;;;21.70;nan;98957.22;4817255;29;20469;-69
2022/06/22 06:48:03;;;;;;;12.80;10.60;;;;;;;21.79;nan;98950.75;4896583;29;20483;-70
2022/06/22 06:50:47;;;;;;;15.93;12.10;;;;;;;21.83;nan;98948.53;4903516;29;20266;-69
2022/06/22 06:53:25;;;;;;;15.37;10.80;;;;;;;21.84;nan;98934.97;4913368;29;20494;-70
2022/06/22 06:56:32;;;;;;;13.37;10.63;;;;;;;21.88;nan;98941.63;4911656;29;20867;-69
2022/06/22 06:59:02;;;;;;;13.40;10.40;;;;;;;21.98;nan;98946.69;4875102;29;20475;-69
2022/06/22 07:01:33;;;;;;;15.40;11.27;;;;;;;22.05;nan;98944.06;4917529;29;20477;-69
2022/06/22 07:04:07;;;;;;;13.30;12.00;;;;;;;22.13;nan;98953.84;4915343;29;20680;-70
2022/06/22 07:06:33;;;;;;;14.47;11.37;;;;;;;22.15;nan;98963.34;4914192;29;20465;-70
2022/06/22 07:09:08;;;;;;;13.00;11.70;;;;;;;22.14;nan;98971.53;4920620;29;21011;-70
2022/06/22 07:11:51;;;;;;;12.50;11.30;;;;;;;22.13;nan;98975.22;4919730;29;20489;-69
2022/06/22 07:14:25;;;;;;;13.17;11.57;;;;;;;22.13;nan;98970.72;4915815;29;20546;-70
2022/06/22 07:16:57;;;;;;;12.50;11.20;;;;;;;22.18;nan;98956.78;4906947;29;20551;-70
2022/06/22 07:19:28;;;;;;;14.80;12.40;;;;;;;22.18;nan;98964.81;4921440;29;20470;-70
2022/06/22 07:22:05;;;;;;;12.53;11.07;;;;;;;22.18;nan;98964.81;4920423;29;20478;-70
2022/06/22 07:24:41;;;;;;;11.50;10.40;;;;;;;22.15;nan;98947.28;4914792;29;20490;-71
2022/06/22 07:27:22;;;;;;;11.47;10.03;;;;;;;22.14;nan;98950.97;4917720;29;20467;-71
2022/06/22 07:30:03;;;;;;;11.40;9.87;;;;;;;22.15;nan;98949.13;4919508;29;20466;-71
2022/06/22 07:32:46;;;;;;;14.18;11.85;;;;;;;22.20;nan;98944.91;4918676;29;20587;-70
2022/06/22 07:35:35;;;;;;;13.73;11.43;;;;;;;22.29;nan;98946.44;4884384;29;20347;-71
2022/06/22 07:38:22;;;;;;;12.00;10.43;;;;;;;22.37;nan;98953.53;4914240;29;20455;-70
2022/06/22 07:43:34;;;;;;;10.83;9.50;;;;;;;22.36;nan;98945.66;4915736;29;20495;-71
2022/06/22 07:46:00;;;;;;;9.50;8.70;;;;;;;22.37;nan;98942.00;4915742;29;20506;-70
2022/06/22 07:48:29;;;;;;;9.47;8.53;;;;;;;22.28;nan;98939.44;4901315;29;20483;-70
2022/06/22 07:50:57;;;;;;;10.43;9.20;;;;;;;22.25;nan;98942.50;4919007;29;20498;-71
2022/06/22 07:53:49;;;;;;;10.87;8.13;;;;;;;22.31;nan;98957.78;4921172;23;20518;-72
2022/06/22 07:56:29;;;;;;;10.17;7.50;;;;;;;22.40;nan;98955.00;4889358;29;20464;-72
2022/06/22 07:59:07;;;;;;;9.33;7.80;;;;;;;22.46;nan;98964.94;4899106;29;20430;-72
2022/06/22 08:01:37;;;;;;;9.53;8.23;;;;;;;22.54;nan;98956.78;4898821;29;20490;-72
2022/06/22 08:04:44;;;;;;;10.90;7.40;;;;;;;22.59;nan;98948.19;4888080;29;20516;-72
2022/06/22 08:07:15;;;;;;;11.37;8.20;;;;;;;22.64;nan;98962.66;4840327;29;20447;-72
2022/06/22 08:09:52;;;;;;;10.27;7.00;;;;;;;22.65;nan;98961.63;4876268;29;20517;-72
2022/06/22 08:12:37;;;;;;;8.90;8.00;;;;;;;22.63;nan;98965.50;4879747;29;20488;-72
2022/06/22 08:15:07;;;;;;;10.47;8.90;;;;;;;22.62;nan;98979.91;4860951;29;21098;-72
2022/06/22 08:17:42;;;;;;;11.23;7.87;;;;;;;22.61;nan;98984.44;4880619;29;20443;-71
2022/06/22 08:20:14;;;;;;;9.20;6.97;;;;;;;22.56;nan;98976.16;4897092;29;20537;-71
2022/06/22 08:22:45;;;;;;;9.07;7.93;;;;;;;22.45;nan;98984.69;4887658;29;20739;-72
2022/06/22 08:25:13;;;;;;;9.13;8.23;;;;;;;22.43;nan;98976.00;4880925;29;20481;-72
2022/06/22 08:27:39;;;;;;;12.83;7.80;;;;;;;22.43;nan;98981.38;4883828;29;20990;-72
2022/06/22 08:30:06;;;;;;;8.87;7.70;;;;;;;22.41;nan;98980.72;4884969;29;20239;-72
2022/06/22 08:32:36;;;;;;;11.70;8.30;;;;;;;22.39;nan;98972.91;4887498;29;20466;-72
2022/06/22 08:35:26;;;;;;;11.10;8.03;;;;;;;22.35;nan;98979.63;4885587;29;20247;-72
2022/06/22 08:37:51;;;;;;;11.27;8.80;;;;;;;22.31;nan;98978.38;4872697;29;20489;-71
2022/06/22 08:40:40;;;;;;;16.03;9.00;;;;;;;22.24;nan;98977.44;4885517;29;20472;-72
2022/06/22 08:43:21;;;;;;;9.83;8.47;;;;;;;22.15;nan;98982.06;4884971;29;20259;-72
2022/06/22 08:46:00;;;;;;;9.83;8.70;;;;;;;22.16;nan;98981.03;4883342;29;20477;-72
2022/06/22 08:48:35;;;;;;;10.67;8.13;;;;;;;22.15;nan;98978.56;4885251;29;20826;-72
2022/06/22 08:51:22;;;;;;;11.20;10.03;;;;;;;22.11;nan;98986.09;4884547;29;20449;-72
2022/06/22 08:53:57;;;;;;;12.27;9.50;;;;;;;22.10;nan;98993.31;4867549;29;20484;-72
2022/06/22 08:56:41;;;;;;;10.87;8.40;;;;;;;22.12;nan;98995.81;4845531;29;20461;-72
2022/06/22 08:59:31;;;;;;;9.60;7.20;;;;;;;22.12;nan;98982.44;4864525;29;20718;-72
2022/06/22 09:02:20;;;;;;;12.20;8.70;;;;;;;22.12;nan;98974.41;4865364;29;20913;-73
2022/06/22 09:04:59;;;;;;;12.70;8.03;;;;;;;22.17;nan;98988.06;4863601;29;20497;-73
2022/06/22 09:07:40;;;;;;;12.07;8.23;;;;;;;22.17;nan;98988.06;4863774;29;20468;-73
2022/06/22 09:10:24;;;;;;;10.97;9.57;;;;;;;22.18;nan;98996.91;4872967;29;20702;-73
2022/06/22 09:12:55;;;;;;;11.90;9.40;;;;;;;22.19;nan;99002.09;4864395;29;20447;-73
2022/06/22 09:15:24;;;;;;;10.97;8.60;;;;;;;22.25;nan;99005.84;4862647;29;20455;-73
2022/06/22 09:17:57;;;;;;;11.93;7.00;;;;;;;22.29;nan;99012.50;4861574;29;20473;-73
2022/06/22 09:20:58;;;;;;;9.17;8.00;;;;;;;22.33;nan;99012.94;4866154;29;20541;-73
2022/06/22 09:23:32;;;;;;;12.77;8.60;;;;;;;22.31;nan;99008.63;4853544;29;20508;-73
2022/06/22 09:26:17;;;;;;;11.57;8.40;;;;;;;22.38;nan;99007.88;4864025;29;20959;-73
2022/06/22 09:28:45;;;;;;;14.00;7.60;;;;;;;22.45;nan;99006.09;4869220;29;20608;-73
2022/06/22 09:31:53;;;;;;;10.83;7.83;;;;;;;22.50;nan;99011.72;4864469;29;20485;-74
2022/06/22 09:34:55;;;;;;;9.93;8.80;;;;;;;22.57;nan;99009.91;4853145;29;20457;-74
2022/06/22 09:37:49;;;;;;;10.37;7.43;;;;;;;22.66;nan;99016.00;4850647;29;20496;-73
2022/06/22 09:40:45;;;;;;;12.70;8.10;;;;;;;22.74;nan;99021.25;4867642;29;20961;-73
2022/06/22 09:43:30;;;;;;;12.43;7.20;;;;;;;22.78;nan;99027.03;4864371;29;20493;-74
2022/06/22 09:46:10;;;;;;;8.20;7.03;;;;;;;22.82;nan;99033.66;4869429;29;20475;-72
2022/06/22 09:48:45;;;;;;;11.00;7.70;;;;;;;22.84;nan;99031.63;4884124;29;20517;-73
2022/06/22 09:51:19;;;;;;;13.00;7.70;;;;;;;22.85;nan;99027.94;4866673;29;20457;-73
2022/06/22 09:53:52;;;;;;;12.37;9.00;;;;;;;22.87;nan;99026.72;4904289;29;21283;-73
2022/06/22 09:56:25;;;;;;;10.33;8.50;;;;;;;22.92;nan;99026.13;4915406;29;20498;-73
2022/06/22 09:59:15;;;;;;;11.53;7.70;;;;;;;23.02;nan;99020.50;4893134;29;20642;-73
2022/06/22 10:02:08;;;;;;;13.53;8.03;;;;;;;23.04;nan;99024.66;4900300;29;20676;-73
2022/06/22 10:04:55;;;;;;;13.60;7.70;;;;;;;23.09;nan;99032.13;4895391;29;20489;-73
2022/06/22 10:07:57;;;;;;;10.97;8.80;;;;;;;23.24;nan;99026.66;4898163;29;20478;-73
2022/06/22 10:10:28;;;;;;;18.43;9.97;;;;;;;23.38;nan;99028.41;4901920;29;20973;-72
2022/06/22 10:12:57;;;;;;;11.33;8.20;;;;;;;23.50;nan;99037.59;4901399;29;21084;-72
2022/06/22 10:15:34;;;;;;;12.50;9.50;;;;;;;23.59;nan;99023.00;4865661;29;20825;-73
2022/06/22 10:18:20;;;;;;;13.10;8.43;;;;;;;23.68;nan;99025.53;4899928;29;20520;-73
2022/06/22 10:21:05;;;;;;;10.17;7.37;;;;;;;23.68;nan;99018.31;4878953;29;20466;-73
2022/06/22 10:23:59;;;;;;;8.33;7.37;;;;;;;23.66;nan;99016.88;4895498;29;20487;-73
2022/06/22 10:26:34;;;;;;;11.73;7.90;;;;;;;23.64;nan;99019.75;4875465;29;20462;-73
2022/06/22 10:29:14;;;;;;;10.03;6.90;;;;;;;23.59;nan;99016.81;4900077;29;20556;-74
2022/06/22 10:32:08;;;;;;;11.37;8.13;;;;;;;23.56;nan;99017.22;4899183;29;20493;-74
2022/06/22 10:34:59;;;;;;;13.83;7.73;;;;;;;23.58;nan;99026.72;4898910;29;20453;-74
2022/06/22 10:37:49;;;;;;;16.43;8.03;;;;;;;23.61;nan;99033.56;4901878;29;20525;-75
2022/06/22 10:47:14;;;;;;;8.90;7.87;;;;;;;23.82;nan;99019.28;4898823;29;21155;-73
2022/06/22 10:50:04;;;;;;;11.50;10.17;;;;;;;23.98;nan;99018.97;4896944;29;20467;-74
2022/06/22 10:52:55;;;;;;;13.83;8.10;;;;;;;24.07;nan;99000.84;4902369;29;21090;-73
2022/06/22 10:55:53;;;;;;;10.73;8.30;;;;;;;24.00;nan;98997.28;4900931;29;20458;-73
2022/06/22 10:58:49;;;;;;;10.07;8.03;;;;;;;24.14;nan;98996.34;4892440;29;20683;-73
2022/06/22 11:01:26;;;;;;;11.90;7.87;;;;;;;24.34;nan;98990.19;4900985;29;20475;-73
2022/06/22 11:04:30;;;;;;;16.87;8.77;;;;;;;24.35;nan;98994.53;4900099;29;20486;-73
2022/06/22 11:07:24;;;;;;;9.23;7.70;;;;;;;24.15;nan;98999.84;4893762;29;20467;-74
2022/06/22 11:10:24;;;;;;;10.57;7.60;;;;;;;24.13;nan;99007.25;4891266;29;20901;-74
2022/06/22 11:13:12;;;;;;;14.23;8.60;;;;;;;24.20;nan;98994.69;4886721;29;20555;-74
2022/06/22 11:16:01;;;;;;;14.37;8.50;;;;;;;24.32;nan;99005.69;4899201;29;20805;-73
2022/06/22 11:18:41;;;;;;;8.50;6.80;;;;;;;24.38;nan;99002.19;4901233;29;20467;-73
2022/06/22 11:21:30;;;;;;;10.87;6.17;;;;;;;24.44;nan;98988.81;4904463;29;20694;-73
2022/06/22 11:30:48;;;;;;;10.07;7.10;;;;;;;24.62;nan;98996.28;4902063;29;20501;-73
2022/06/22 11:31:14;;;;;;;11.60;7.87;;;;;;;24.79;nan;99004.81;4823202;29;20958;-74
2022/06/22 11:33:54;;;;;;;7.50;6.23;;;;;;;24.88;nan;98992.81;4880140;29;20466;-73
2022/06/22 11:36:26;;;;;;;14.80;8.50;;;;;;;25.00;nan;98986.84;4898057;29;20491;-73
2022/06/22 11:38:52;;;;;;;13.17;7.00;;;;;;;24.96;nan;98983.75;4900389;29;20542;-73
2022/06/22 11:41:43;;;;;;;11.37;7.80;;;;;;;24.82;nan;98980.22;4881205;29;20472;-73
2022/06/22 11:44:25;;;;;;;8.50;7.30;;;;;;;24.71;nan;98964.72;4898619;29;20499;-73
2022/06/22 11:46:54;;;;;;;8.57;5.17;;;;;;;24.69;nan;98977.50;4898868;29;20472;-73
2022/06/22 11:49:35;;;;;;;10.20;5.50;;;;;;;24.81;nan;98970.47;4900870;29;20459;-73
2022/06/22 11:52:10;;;;;;;15.33;6.97;;;;;;;25.10;nan;98963.06;4899066;29;20497;-73
2022/06/22 11:54:48;;;;;;;8.03;5.27;;;;;;;25.47;nan;98953.56;4906807;29;20454;-74
2022/06/22 11:57:37;;;;;;;10.23;7.97;;;;;;;25.66;nan;98951.84;4907114;29;20460;-74
2022/06/22 12:00:10;;;;;;;10.70;7.00;;;;;;;25.66;nan;98954.53;4906184;29;20474;-73
2022/06/22 12:02:44;;;;;;;9.83;5.40;;;;;;;25.68;nan;98957.84;4907071;29;20847;-73
2022/06/22 12:05:15;;;;;;;10.27;6.20;;;;;;;25.75;nan;98955.94;4911950;29;20583;-74
2022/06/22 12:08:08;;;;;;;6.70;5.40;;;;;;;25.86;nan;98951.81;4907748;29;20996;-73
2022/06/22 12:11:01;;;;;;;10.03;5.17;;;;;;;25.80;nan;98950.75;4904908;29;20774;-73
2022/06/22 12:13:40;;;;;;;9.27;5.17;;;;;;;25.85;nan;98950.16;4903315;29;20990;-73
2022/06/22 12:16:35;;;;;;;10.63;4.60;;;;;;;25.80;nan;98948.06;4907537;29;20463;-73
2022/06/22 12:19:21;;;;;;;9.03;4.63;;;;;;;25.75;nan;98939.00;4900740;29;20452;-73
2022/06/22 12:22:01;;;;;;;5.83;4.10;;;;;;;25.80;nan;98929.25;4913311;29;20472;-74
2022/06/22 12:24:48;;;;;;;9.17;3.80;;;;;;;25.87;nan;98936.47;4888685;29;20483;-73
2022/06/22 12:27:25;;;;;;;7.73;4.70;;;;;;;25.77;nan;98936.91;4899936;29;20532;-74
2022/06/22 12:30:00;;;;;;;8.40;4.50;;;;;;;25.77;nan;98931.53;4902250;29;20463;-74
2022/06/22 12:32:34;;;;;;;4.60;3.63;;;;;;;25.79;nan;98924.09;4901494;29;21239;-73
2022/06/22 12:35:11;;;;;;;9.00;3.93;;;;;;;25.80;nan;98923.84;4905953;29;20470;-74
2022/06/22 12:37:43;;;;;;;11.03;4.43;;;;;;;25.81;nan;98930.88;4904680;29;20463;-73
2022/06/22 12:40:27;;;;;;;6.47;3.90;;;;;;;25.77;nan;98920.78;4915110;29;20471;-73
2022/06/22 12:43:06;;;;;;;6.87;3.53;;;;;;;25.74;nan;98927.41;4914143;29;20487;-74
2022/06/22 12:45:40;;;;;;;7.33;3.80;;;;;;;25.77;nan;98918.91;4903282;29;20550;-74
2022/06/22 12:48:34;;;;;;;8.03;3.90;;;;;;;25.81;nan;98922.81;4901870;29;20456;-74
2022/06/22 12:51:26;;;;;;;10.63;3.60;;;;;;;25.89;nan;98921.78;4840061;29;20592;-74
2022/06/22 12:54:39;;;;;;;9.60;3.83;;;;;;;25.94;nan;98913.88;4898185;29;20503;-74
2022/06/22 12:57:12;;;;;;;15.37;4.43;;;;;;;25.96;nan;98901.06;4848278;29;20473;-73